createdAt,value
2022-09-17T00:02:13.829Z,1.50
2022-09-17T00:04:41.366Z,1.70
2022-09-17T00:14:49.441Z,1.90
2022-09-17T00:17:18.347Z,1.67
2022-09-17T00:19:45.982Z,1.67
2022-09-17T00:22:14.724Z,2.00
2022-09-17T00:24:42.398Z,1.90
2022-09-17T00:27:09.988Z,2.60
2022-09-17T00:29:37.704Z,2.00
2022-09-17T00:32:05.543Z,2.13
2022-09-17T00:34:34.863Z,1.70
2022-09-17T00:37:02.447Z,2.00
2022-09-17T00:39:30.072Z,1.77
2022-09-17T00:41:57.662Z,1.70
2022-09-17T00:44:48.128Z,1.83
2022-09-17T00:47:20.785Z,1.67
2022-09-17T00:49:52.160Z,2.00
2022-09-17T00:52:22.858Z,2.33
2022-09-17T00:54:55.001Z,2.30
2022-09-17T00:57:22.706Z,1.90
2022-09-17T00:59:50.457Z,1.80
2022-09-17T01:02:18.272Z,2.07
2022-09-17T01:04:45.856Z,2.10
2022-09-17T01:07:22.007Z,2.07
2022-09-17T01:09:55.468Z,2.40
2022-09-17T01:12:36.302Z,2.30
2022-09-17T01:15:15.729Z,2.83
2022-09-17T01:17:48.857Z,2.73
2022-09-17T01:21:04.565Z,2.67
2022-09-17T01:24:05.542Z,2.50
2022-09-17T01:29:37.518Z,2.80
2022-09-17T01:32:10.102Z,2.80
2022-09-17T01:34:43.188Z,2.80
2022-09-17T01:37:14.629Z,2.67
2022-09-17T01:39:45.278Z,2.83
2022-09-17T01:42:18.941Z,2.90
2022-09-17T01:44:54.040Z,2.63
2022-09-17T01:47:25.250Z,2.83
2022-09-17T01:49:55.238Z,2.93
2022-09-17T01:52:23.538Z,2.77
2022-09-17T01:54:52.963Z,2.60
2022-09-17T01:57:24.434Z,2.70
2022-09-17T01:59:55.935Z,2.77
2022-09-17T02:02:29.221Z,2.30
2022-09-17T02:04:59.677Z,3.13
2022-09-17T02:07:27.994Z,3.13
2022-09-17T02:09:59.305Z,2.40
2022-09-17T02:12:31.503Z,2.20
2022-09-17T02:15:02.131Z,2.73
2022-09-17T02:17:34.812Z,2.50
2022-09-17T02:20:02.957Z,2.57
2022-09-17T02:22:33.901Z,2.60
2022-09-17T02:25:05.462Z,2.67
2022-09-17T02:27:45.474Z,2.33
2022-09-17T02:30:13.612Z,2.23
2022-09-17T02:32:42.953Z,2.60
2022-09-17T02:35:11.135Z,2.47
2022-09-17T02:37:39.126Z,2.37
2022-09-17T02:40:09.321Z,2.50
2022-09-17T02:42:59.218Z,2.40
2022-09-17T02:45:36.956Z,2.37
2022-09-17T02:48:20.747Z,2.83
2022-09-17T02:51:18.629Z,2.40
2022-09-17T02:53:51.050Z,2.00
2022-09-17T02:56:22.666Z,2.60
2022-09-17T02:58:54.721Z,2.40
2022-09-17T03:01:26.796Z,2.33
2022-09-17T03:03:56.885Z,2.37
2022-09-17T03:06:24.562Z,2.07
2022-09-17T03:08:53.055Z,2.10
2022-09-17T03:11:21.609Z,2.40
2022-09-17T03:13:49.383Z,2.00
2022-09-17T03:16:17.424Z,2.30
2022-09-17T03:18:45.102Z,1.57
2022-09-17T03:21:13.976Z,2.30
2022-09-17T03:23:41.729Z,2.30
2022-09-17T03:26:09.381Z,2.07
2022-09-17T03:28:36.984Z,1.87
2022-09-17T03:31:05.738Z,2.33
2022-09-17T03:33:33.446Z,1.80
2022-09-17T03:36:01.274Z,1.93
2022-09-17T03:38:30.263Z,1.80
2022-09-17T03:40:59.275Z,1.70
2022-09-17T03:43:28.138Z,2.00
2022-09-17T03:45:55.659Z,1.50
2022-09-17T03:48:23.301Z,2.10
2022-09-17T03:50:50.858Z,2.13
2022-09-17T03:53:18.863Z,2.03
2022-09-17T03:55:47.755Z,2.73
2022-09-17T03:58:15.252Z,1.70
2022-09-17T04:00:43.449Z,1.67
2022-09-17T04:03:11.014Z,1.60
2022-09-17T04:05:38.548Z,1.60
2022-09-17T04:08:06.583Z,1.70
2022-09-17T04:10:34.086Z,1.97
2022-09-17T04:13:03.023Z,1.93
2022-09-17T04:15:30.662Z,2.57
2022-09-17T04:17:58.670Z,1.97
2022-09-17T04:20:26.999Z,1.93
2022-09-17T04:22:54.976Z,2.20
2022-09-17T04:25:22.596Z,2.57
2022-09-17T04:27:50.151Z,1.90
2022-09-17T04:30:19.464Z,1.97
2022-09-17T04:32:47.815Z,1.70
2022-09-17T04:35:15.620Z,1.70
2022-09-17T04:37:43.129Z,2.17
2022-09-17T04:40:11.811Z,2.30
2022-09-17T04:42:39.465Z,1.93
2022-09-17T04:45:08.214Z,1.90
2022-09-17T04:47:39.994Z,1.70
2022-09-17T04:50:08.587Z,2.23
2022-09-17T04:52:36.608Z,2.17
2022-09-17T04:55:04.791Z,1.67
2022-09-17T04:57:32.480Z,1.90
2022-09-17T05:00:00.490Z,2.23
2022-09-17T05:02:28.076Z,1.50
2022-09-17T05:04:56.989Z,1.60
2022-09-17T05:07:24.694Z,2.07
2022-09-17T05:09:53.490Z,2.10
2022-09-17T05:12:21.245Z,2.27
2022-09-17T05:14:48.784Z,1.90
2022-09-17T05:17:17.175Z,1.53
2022-09-17T05:19:45.117Z,2.40
2022-09-17T05:22:15.637Z,2.40
2022-09-17T05:24:46.094Z,2.37
2022-09-17T05:27:13.753Z,2.10
2022-09-17T05:29:41.383Z,1.87
2022-09-17T05:32:08.940Z,2.10
2022-09-17T05:34:36.660Z,1.67
2022-09-17T05:37:04.253Z,1.80
2022-09-17T05:39:33.377Z,2.07
2022-09-17T05:42:00.903Z,1.80
2022-09-17T05:44:28.991Z,1.87
2022-09-17T05:46:56.787Z,2.00
2022-09-17T05:49:24.434Z,2.57
2022-09-17T05:51:52.337Z,1.77
2022-09-17T05:54:19.838Z,3.03
2022-09-17T05:56:48.726Z,2.27
2022-09-17T05:59:16.545Z,2.00
2022-09-17T06:01:44.086Z,1.60
2022-09-17T06:04:11.834Z,2.00
2022-09-17T06:06:41.495Z,1.80
2022-09-17T06:09:09.767Z,1.70
2022-09-17T06:11:38.092Z,1.70
2022-09-17T06:14:07.158Z,1.73
2022-09-17T06:16:34.740Z,1.80
2022-09-17T06:19:04.049Z,3.23
2022-09-17T06:21:31.727Z,1.67
2022-09-17T06:23:59.749Z,2.73
2022-09-17T06:26:27.329Z,2.50
2022-09-17T06:28:54.963Z,1.67
2022-09-17T06:31:23.926Z,1.70
2022-09-17T06:33:51.495Z,2.30
2022-09-17T06:36:19.235Z,2.03
2022-09-17T06:38:47.031Z,1.93
2022-09-17T06:41:16.752Z,2.10
2022-09-17T06:43:44.910Z,2.00
2022-09-17T06:46:12.696Z,2.00
2022-09-17T06:48:41.974Z,1.80
2022-09-17T06:51:11.785Z,1.93
2022-09-17T06:53:39.556Z,1.50
2022-09-17T06:56:08.205Z,1.77
2022-09-17T06:58:37.041Z,1.70
2022-09-17T07:01:05.975Z,2.03
2022-09-17T07:03:34.263Z,1.77
2022-09-17T07:06:03.174Z,1.40
2022-09-17T07:08:34.310Z,1.90
2022-09-17T07:11:02.230Z,1.53
2022-09-17T07:13:29.802Z,1.90
2022-09-17T07:15:58.560Z,1.87
2022-09-17T07:18:26.864Z,1.60
2022-09-17T07:20:56.138Z,1.73
2022-09-17T07:23:26.731Z,1.70
2022-09-17T07:25:55.203Z,2.13
2022-09-17T07:28:23.709Z,1.70
2022-09-17T07:30:51.937Z,1.90
2022-09-17T07:33:23.171Z,1.70
2022-09-17T07:35:54.538Z,1.27
2022-09-17T07:38:22.705Z,1.57
2022-09-17T07:40:59.608Z,1.50
2022-09-17T07:43:27.448Z,2.43
2022-09-17T07:45:55.604Z,1.60
2022-09-17T07:48:23.303Z,2.00
2022-09-17T07:50:51.115Z,1.50
2022-09-17T07:53:19.104Z,1.70
2022-09-17T07:55:53.093Z,1.50
2022-09-17T07:58:22.326Z,1.83
2022-09-17T08:00:50.103Z,1.30
2022-09-17T08:03:17.906Z,1.77
2022-09-17T08:05:45.811Z,1.50
2022-09-17T08:08:14.897Z,1.57
2022-09-17T08:10:44.111Z,1.50
2022-09-17T08:13:11.656Z,1.40
2022-09-17T08:15:40.842Z,1.67
2022-09-17T08:18:08.616Z,1.40
2022-09-17T08:20:36.107Z,1.33
2022-09-17T08:23:04.085Z,2.33
2022-09-17T08:25:31.659Z,1.50
2022-09-17T08:27:59.394Z,1.60
2022-09-17T08:30:28.232Z,1.63
2022-09-17T08:32:57.627Z,1.47
2022-09-17T08:35:27.859Z,1.30
2022-09-17T08:37:56.960Z,1.53
2022-09-17T08:40:27.732Z,1.40
2022-09-17T08:43:01.679Z,1.40
2022-09-17T08:45:29.960Z,1.30
2022-09-17T08:48:05.028Z,1.50
2022-09-17T08:50:33.947Z,1.20
2022-09-17T08:53:11.471Z,1.43
2022-09-17T08:55:42.027Z,2.03
2022-09-17T08:58:41.959Z,1.43
2022-09-17T09:01:18.543Z,1.73
2022-09-17T09:04:03.762Z,1.20
2022-09-17T09:06:35.281Z,1.40
2022-09-17T09:09:05.601Z,1.47
2022-09-17T09:11:33.859Z,1.47
2022-09-17T09:14:06.810Z,1.40
2022-09-17T09:16:35.456Z,1.03
2022-09-17T09:19:13.532Z,1.40
2022-09-17T09:21:45.874Z,1.50
2022-09-17T09:24:21.948Z,1.40
2022-09-17T09:26:58.799Z,1.30
2022-09-17T09:29:34.466Z,1.30
2022-09-17T09:32:16.237Z,1.20
2022-09-17T09:34:46.678Z,1.57
2022-09-17T09:37:19.438Z,1.10
2022-09-17T09:39:48.285Z,1.20
2022-09-17T09:42:22.789Z,1.30
2022-09-17T09:44:50.602Z,1.47
2022-09-17T09:47:44.850Z,1.50
2022-09-17T09:50:54.659Z,1.37
2022-09-17T09:53:25.717Z,1.57
2022-09-17T09:56:03.211Z,1.53
2022-09-17T09:58:35.197Z,1.50
2022-09-17T10:01:03.107Z,1.67
2022-09-17T10:03:32.287Z,1.00
2022-09-17T10:06:03.226Z,1.17
2022-09-17T10:08:32.782Z,1.27
2022-09-17T10:11:02.855Z,1.30
2022-09-17T10:13:32.033Z,1.50
2022-09-17T10:16:17.913Z,1.03
2022-09-17T10:18:46.017Z,0.90
2022-09-17T10:21:22.612Z,0.90
2022-09-17T10:23:50.816Z,1.20
2022-09-17T10:26:24.031Z,1.13
2022-09-17T10:28:53.146Z,1.27
2022-09-17T10:31:20.834Z,1.50
2022-09-17T10:33:54.526Z,0.90
2022-09-17T10:36:43.143Z,0.97
2022-09-17T10:39:28.289Z,1.33
2022-09-17T10:41:56.816Z,1.30
2022-09-17T10:44:25.951Z,1.23
2022-09-17T10:46:53.830Z,1.20
2022-09-17T10:49:31.122Z,1.20
2022-09-17T10:52:07.953Z,1.10
2022-09-17T10:54:55.070Z,1.30
2022-09-17T10:57:33.663Z,1.20
2022-09-17T11:00:07.832Z,1.00
2022-09-17T11:03:18.078Z,0.93
2022-09-17T11:06:06.649Z,1.07
2022-09-17T11:08:45.930Z,1.07
2022-09-17T11:11:19.992Z,1.20
2022-09-17T11:13:53.254Z,1.30
2022-09-17T11:16:34.282Z,0.90
2022-09-17T11:19:07.010Z,1.13
2022-09-17T11:21:40.794Z,1.00
2022-09-17T11:24:45.871Z,0.90
2022-09-17T11:27:31.173Z,1.00
2022-09-17T11:30:17.132Z,0.87
2022-09-17T11:33:20.962Z,0.77
2022-09-17T11:35:50.313Z,0.97
2022-09-17T11:38:21.673Z,0.70
2022-09-17T11:40:53.777Z,0.93
2022-09-17T11:43:27.293Z,0.70
2022-09-17T11:46:00.226Z,0.60
2022-09-17T11:48:33.202Z,0.50
2022-09-17T11:51:04.473Z,0.50
2022-09-17T11:53:35.437Z,0.50
2022-09-17T11:56:10.128Z,0.40
2022-09-17T11:58:42.504Z,0.30
2022-09-17T12:01:13.501Z,0.60
2022-09-17T12:03:43.041Z,0.40
2022-09-17T12:06:14.781Z,0.77
2022-09-17T12:08:46.980Z,0.53
2022-09-17T12:11:19.549Z,1.10
2022-09-17T12:13:51.390Z,0.80
2022-09-17T12:16:22.726Z,0.80
2022-09-17T12:18:55.089Z,0.90
2022-09-17T12:21:24.697Z,0.90
2022-09-17T12:23:56.271Z,0.60
2022-09-17T12:26:34.044Z,0.63
2022-09-17T12:29:06.863Z,0.80
2022-09-17T12:31:38.129Z,0.83
2022-09-17T12:34:19.378Z,0.90
2022-09-17T12:36:51.783Z,0.70
2022-09-17T12:39:44.927Z,0.70
2022-09-17T12:42:23.826Z,1.30
2022-09-17T12:45:05.141Z,0.80
2022-09-17T12:47:54.083Z,0.60
2022-09-17T12:50:27.933Z,0.60
2022-09-17T12:53:08.147Z,0.80
2022-09-17T12:55:41.425Z,0.60
2022-09-17T12:58:18.591Z,0.60
2022-09-17T13:00:49.407Z,0.70
2022-09-17T13:03:21.574Z,0.73
2022-09-17T13:06:35.493Z,0.50
2022-09-17T13:09:36.853Z,0.60
2022-09-17T13:12:17.148Z,1.10
2022-09-17T13:15:04.298Z,1.13
2022-09-17T13:17:36.190Z,1.00
2022-09-17T13:20:07.648Z,0.80
2022-09-17T13:22:45.364Z,0.83
2022-09-17T13:25:14.957Z,0.93
2022-09-17T13:27:42.954Z,1.20
2022-09-17T13:30:13.250Z,1.00
2022-09-17T13:32:51.673Z,0.70
2022-09-17T13:35:50.716Z,0.90
2022-09-17T13:38:23.094Z,1.10
2022-09-17T13:40:52.400Z,1.10
2022-09-17T13:43:23.843Z,0.90
2022-09-17T13:46:21.714Z,1.07
2022-09-17T13:48:51.906Z,1.10
2022-09-17T13:52:02.367Z,1.13
2022-09-17T13:54:39.034Z,0.90
2022-09-17T13:57:16.796Z,1.00
2022-09-17T13:59:56.674Z,0.83
2022-09-17T14:02:40.771Z,0.80
2022-09-17T14:05:32.433Z,1.10
2022-09-17T14:08:38.632Z,0.90
2022-09-17T14:11:37.699Z,0.50
2022-09-17T14:14:48.516Z,1.13
2022-09-17T14:17:51.737Z,0.70
2022-09-17T14:20:21.018Z,0.63
2022-09-17T14:22:56.329Z,0.80
2022-09-17T14:25:29.005Z,0.57
2022-09-17T14:27:58.381Z,1.10
2022-09-17T14:30:28.015Z,0.80
2022-09-17T14:33:05.182Z,0.83
2022-09-17T14:35:36.538Z,1.00
2022-09-17T14:38:10.745Z,1.87
2022-09-17T14:40:43.357Z,1.13
2022-09-17T14:43:19.013Z,1.17
2022-09-17T14:45:49.610Z,1.00
2022-09-17T14:48:33.319Z,1.17
2022-09-17T14:51:28.969Z,1.30
2022-09-17T14:54:35.070Z,1.17
2022-09-17T14:57:04.842Z,1.70
2022-09-17T14:59:44.047Z,1.13
2022-09-17T15:02:34.445Z,1.23
2022-09-17T15:05:12.374Z,0.97
2022-09-17T15:07:43.039Z,0.97
2022-09-17T15:10:15.975Z,0.90
2022-09-17T15:12:44.570Z,1.17
2022-09-17T15:15:18.570Z,0.90
2022-09-17T15:17:46.322Z,1.00
2022-09-17T15:20:19.086Z,1.37
2022-09-17T15:22:49.873Z,1.03
2022-09-17T15:25:23.814Z,0.60
2022-09-17T15:27:53.721Z,0.87
2022-09-17T15:30:22.641Z,0.90
2022-09-17T15:32:51.666Z,1.50
2022-09-17T15:35:28.171Z,0.80
2022-09-17T15:40:45.015Z,1.17
2022-09-17T15:43:18.680Z,1.27
2022-09-17T15:45:46.370Z,1.17
2022-09-17T15:48:24.920Z,1.17
2022-09-17T15:50:55.172Z,1.33
2022-09-17T15:53:26.461Z,1.10
2022-09-17T15:56:02.866Z,1.30
2022-09-17T15:58:33.015Z,1.50
2022-09-17T16:01:40.925Z,1.40
2022-09-17T16:04:17.811Z,1.60
2022-09-17T16:06:57.889Z,1.50
2022-09-17T16:09:46.780Z,1.40
2022-09-17T16:12:16.656Z,1.33
2022-09-17T16:14:45.974Z,1.20
2022-09-17T16:17:25.174Z,1.10
2022-09-17T16:19:53.022Z,1.30
2022-09-17T16:22:21.949Z,1.30
2022-09-17T16:24:49.590Z,1.80
2022-09-17T16:27:21.086Z,1.20
2022-09-17T16:29:49.472Z,1.37
2022-09-17T16:32:16.970Z,1.53
2022-09-17T16:34:44.558Z,1.00
2022-09-17T16:37:12.098Z,0.90
2022-09-17T16:39:41.181Z,1.40
2022-09-17T16:42:09.412Z,1.40
2022-09-17T16:44:36.981Z,1.30
2022-09-17T16:47:04.831Z,1.30
2022-09-17T16:49:32.687Z,1.20
2022-09-17T16:52:00.404Z,2.17
2022-09-17T16:54:28.215Z,2.33
2022-09-17T16:56:57.134Z,1.53
2022-09-17T16:59:24.657Z,1.73
2022-09-17T17:01:52.532Z,1.30
2022-09-17T17:04:21.210Z,1.50
2022-09-17T17:06:48.847Z,1.40
2022-09-17T17:09:16.652Z,1.07
2022-09-17T17:11:44.443Z,1.77
2022-09-17T17:14:14.860Z,1.67
2022-09-17T17:16:43.549Z,1.57
2022-09-17T17:19:11.554Z,1.37
2022-09-17T17:21:41.294Z,1.63
2022-09-17T17:24:11.969Z,1.60
2022-09-17T17:26:39.907Z,1.50
2022-09-17T17:29:08.018Z,1.90
2022-09-17T17:31:37.662Z,1.70
2022-09-17T17:34:05.209Z,1.47
2022-09-17T17:36:33.249Z,1.43
2022-09-17T17:39:01.745Z,1.57
2022-09-17T17:41:29.772Z,1.50
2022-09-17T17:43:57.813Z,1.30
2022-09-17T17:46:25.768Z,1.40
2022-09-17T17:48:54.996Z,1.50
2022-09-17T17:51:23.832Z,1.47
2022-09-17T17:53:52.143Z,1.50
2022-09-17T17:56:20.552Z,1.83
2022-09-17T17:58:48.248Z,1.70
2022-09-17T18:01:18.442Z,1.40
2022-09-17T18:03:46.099Z,1.20
2022-09-17T18:06:15.519Z,1.57
2022-09-17T18:08:44.779Z,1.47
2022-09-17T18:11:12.753Z,1.80
2022-09-17T18:13:41.047Z,1.70
2022-09-17T18:16:11.822Z,1.90
2022-09-17T18:18:44.676Z,2.00
2022-09-17T18:21:16.469Z,1.63
2022-09-17T18:23:44.330Z,1.97
2022-09-17T18:26:14.038Z,1.73
2022-09-17T18:28:41.969Z,1.90
2022-09-17T18:31:14.010Z,1.77
2022-09-17T18:33:41.610Z,1.73
2022-09-17T18:36:09.123Z,1.83
2022-09-17T18:38:39.524Z,1.47
2022-09-17T18:41:08.452Z,2.07
2022-09-17T18:43:36.267Z,1.87
2022-09-17T18:46:04.545Z,1.60
2022-09-17T18:48:36.306Z,1.83
2022-09-17T18:51:06.233Z,1.70
2022-09-17T18:53:36.246Z,1.60
2022-09-17T18:56:07.653Z,1.70
2022-09-17T18:58:35.415Z,1.90
2022-09-17T19:01:06.407Z,1.60
2022-09-17T19:03:34.744Z,1.90
2022-09-17T19:06:02.416Z,1.83
2022-09-17T19:08:30.899Z,3.37
2022-09-17T19:10:58.822Z,1.77
2022-09-17T19:13:28.474Z,2.23
2022-09-17T19:15:59.423Z,1.53
2022-09-17T19:18:27.367Z,1.70
2022-09-17T19:21:00.450Z,2.37
2022-09-17T19:23:28.199Z,2.07
2022-09-17T19:25:55.848Z,2.43
2022-09-17T19:28:23.651Z,1.80
2022-09-17T19:30:52.577Z,2.07
2022-09-17T19:33:20.082Z,1.90
2022-09-17T19:35:50.494Z,2.40
2022-09-17T19:38:18.327Z,1.87
2022-09-17T19:40:56.307Z,1.80
2022-09-17T19:43:23.962Z,1.77
2022-09-17T19:45:52.922Z,1.30
2022-09-17T19:48:25.055Z,1.20
2022-09-17T19:50:53.306Z,1.50
2022-09-17T19:53:21.280Z,1.33
2022-09-17T19:55:49.128Z,1.30
2022-09-17T19:58:16.798Z,1.53
2022-09-17T20:00:44.525Z,1.17
2022-09-17T20:03:14.288Z,1.07
2022-09-17T20:05:41.921Z,1.00
2022-09-17T20:08:09.633Z,1.03
2022-09-17T20:10:38.663Z,1.00
2022-09-17T20:13:06.937Z,0.60
2022-09-17T20:15:35.608Z,0.97
2022-09-17T20:18:03.555Z,1.00
2022-09-17T20:20:32.453Z,1.13
2022-09-17T20:23:00.286Z,1.00
2022-09-17T20:25:27.803Z,1.07
2022-09-17T20:27:55.324Z,0.93
2022-09-17T20:30:23.094Z,0.90
2022-09-17T20:32:50.648Z,0.70
2022-09-17T20:35:18.222Z,0.70
2022-09-17T20:40:35.172Z,0.80
2022-09-17T20:43:02.705Z,1.10
2022-09-17T20:45:30.273Z,0.90
2022-09-17T20:47:58.135Z,0.90
2022-09-17T20:50:25.661Z,1.00
2022-09-17T20:52:54.968Z,1.07
2022-09-17T20:55:22.758Z,1.20
2022-09-17T20:57:53.519Z,1.10
2022-09-17T21:00:21.704Z,2.17
2022-09-17T21:02:54.144Z,1.40
2022-09-17T21:05:21.670Z,1.40
2022-09-17T21:07:49.127Z,1.10
2022-09-17T21:10:18.014Z,0.90
2022-09-17T21:12:45.736Z,1.50
2022-09-17T21:15:13.912Z,1.17
2022-09-17T21:17:42.771Z,1.10
2022-09-17T21:20:10.849Z,1.20
2022-09-17T21:22:38.852Z,1.07
2022-09-17T21:25:07.249Z,1.20
2022-09-17T21:27:36.791Z,1.07
2022-09-17T21:30:09.694Z,1.30
2022-09-17T21:32:37.795Z,1.23
2022-09-17T21:35:05.831Z,0.90
2022-09-17T21:37:33.398Z,1.00
2022-09-17T21:40:00.969Z,1.07
2022-09-17T21:42:28.610Z,1.07
2022-09-17T21:44:57.460Z,0.97
2022-09-17T21:47:24.994Z,1.00
2022-09-17T21:49:52.815Z,1.20
2022-09-17T21:52:20.352Z,1.37
2022-09-17T21:54:47.889Z,1.30
2022-09-17T21:57:15.798Z,1.33
2022-09-17T21:59:43.317Z,1.10
2022-09-17T22:02:12.322Z,1.27
2022-09-17T22:04:40.165Z,1.10
2022-09-17T22:07:07.752Z,1.37
2022-09-17T22:09:35.836Z,1.47
2022-09-17T22:12:06.339Z,1.50
2022-09-17T22:14:33.935Z,1.30
2022-09-17T22:17:01.449Z,1.03
2022-09-17T22:19:30.785Z,1.30
2022-09-17T22:21:58.321Z,1.10
2022-09-17T22:24:26.547Z,1.00
2022-09-17T22:26:57.848Z,1.07
2022-09-17T22:29:27.220Z,1.50
2022-09-17T22:31:55.162Z,1.27
2022-09-17T22:34:25.183Z,1.53
2022-09-17T22:36:54.080Z,1.00
2022-09-17T22:39:22.104Z,1.60
2022-09-17T22:41:50.091Z,1.33
2022-09-17T22:44:20.121Z,1.13
2022-09-17T22:46:50.233Z,1.40
2022-09-17T22:49:18.506Z,1.40
2022-09-17T22:51:47.496Z,1.30
2022-09-17T22:54:17.940Z,1.40
2022-09-17T22:56:46.699Z,1.20
2022-09-17T22:59:14.405Z,1.50
2022-09-17T23:01:42.375Z,1.40
2022-09-17T23:04:09.994Z,1.33
2022-09-17T23:06:39.205Z,1.30
2022-09-17T23:09:07.562Z,1.40
2022-09-17T23:11:38.350Z,1.10
2022-09-17T23:14:08.688Z,1.47
2022-09-17T23:16:37.827Z,1.40
2022-09-17T23:19:05.689Z,1.60
2022-09-17T23:21:33.473Z,1.40
2022-09-17T23:24:01.108Z,1.40
2022-09-17T23:26:28.745Z,1.47
2022-09-17T23:29:02.427Z,1.80
2022-09-17T23:31:33.950Z,1.50
2022-09-17T23:34:01.554Z,1.27
2022-09-17T23:36:30.874Z,1.37
2022-09-17T23:38:59.864Z,1.50
2022-09-17T23:41:29.138Z,1.43
2022-09-17T23:43:59.151Z,1.63
2022-09-17T23:46:29.428Z,1.40
2022-09-17T23:48:57.101Z,1.97
2022-09-17T23:51:26.353Z,1.80
2022-09-17T23:53:55.059Z,1.73
2022-09-17T23:56:25.018Z,1.60
2022-09-17T23:58:54.119Z,1.53
